Time;durP1;ratioP1;P1;durP2;ratioP2;P2;SDS_P1;SDS_P2;PMS_P1;PMS_P2;Temp;Humidity;BMP_temperature;BMP_pressure;BME280_temperature;BME280_humidity;BME280_pressure;Samples;Min_cycle;Max_cycle;Signal;HPM_P1;HPM_P2
2022/04/05 00:02:17;;;;;;;0.80;0.60;;;17.10;44.90;;;;;;5054266;28;20168;-90
2022/04/05 00:04:43;;;;;;;0.50;0.50;;;17.00;44.90;;;;;;5054877;28;20207;-90
2022/04/05 00:07:09;;;;;;;0.70;0.60;;;17.00;44.90;;;;;;5054924;28;20205;-90
2022/04/05 00:09:35;;;;;;;0.90;0.67;;;17.00;44.90;;;;;;5055474;28;20568;-91
2022/04/05 00:12:01;;;;;;;0.50;0.50;;;17.00;45.00;;;;;;5055841;28;20178;-91
2022/04/05 00:14:27;;;;;;;0.50;0.50;;;17.00;45.00;;;;;;5055192;28;20247;-91
2022/04/05 00:16:52;;;;;;;0.50;0.50;;;17.00;45.00;;;;;;5053084;28;20230;-91
2022/04/05 00:19:19;;;;;;;0.50;0.50;;;16.90;45.00;;;;;;5053064;28;20199;-90
2022/04/05 00:21:45;;;;;;;0.50;0.50;;;16.90;45.00;;;;;;5053185;28;20176;-90
2022/04/05 00:24:11;;;;;;;0.50;0.50;;;16.90;45.00;;;;;;5054909;28;20303;-91
2022/04/05 00:26:37;;;;;;;0.80;0.70;;;16.90;45.10;;;;;;5055013;28;20280;-91
2022/04/05 00:29:03;;;;;;;0.60;0.60;;;16.90;45.10;;;;;;5054696;28;20174;-91
2022/04/05 00:31:29;;;;;;;0.63;0.60;;;16.90;45.10;;;;;;5055285;28;20273;-91
2022/04/05 00:33:54;;;;;;;0.50;0.50;;;16.90;45.20;;;;;;5054222;28;20186;-91
2022/04/05 00:36:20;;;;;;;0.60;0.50;;;16.90;45.20;;;;;;5054430;28;20219;-91
2022/04/05 00:38:46;;;;;;;0.50;0.50;;;16.90;45.20;;;;;;5052350;28;20181;-91
2022/04/05 00:41:12;;;;;;;0.50;0.50;;;16.80;45.20;;;;;;5052687;28;20549;-91
2022/04/05 00:43:37;;;;;;;0.50;0.50;;;16.80;45.20;;;;;;5052514;28;20246;-90
2022/04/05 00:46:03;;;;;;;0.50;0.50;;;16.80;45.20;;;;;;5052957;28;20267;-90
2022/04/05 00:48:47;;;;;;;0.50;0.50;;;16.80;45.30;;;;;;5053059;28;20176;-90
2022/04/05 00:51:15;;;;;;;0.40;0.40;;;16.80;45.30;;;;;;5054873;28;20189;-90
2022/04/05 00:53:43;;;;;;;0.50;0.50;;;16.80;45.30;;;;;;5053857;28;20209;-90
2022/04/05 00:56:11;;;;;;;0.40;0.40;;;16.80;45.30;;;;;;5053985;28;20240;-91
2022/04/05 00:58:38;;;;;;;0.50;0.50;;;16.80;45.30;;;;;;5054200;28;20182;-90
2022/04/05 01:01:04;;;;;;;0.73;0.60;;;16.80;45.30;;;;;;5052745;28;20304;-90
2022/04/05 01:03:32;;;;;;;1.93;0.50;;;16.80;45.40;;;;;;5053375;28;20173;-90
2022/04/05 01:06:04;;;;;;;0.87;0.60;;;16.80;45.40;;;;;;5051610;28;20263;-90
2022/04/05 01:08:30;;;;;;;0.50;0.50;;;16.70;45.40;;;;;;5053963;28;20452;-90
2022/04/05 01:10:59;;;;;;;0.73;0.50;;;16.70;45.40;;;;;;5054717;28;20203;-90
2022/04/05 01:13:24;;;;;;;0.50;0.50;;;16.70;45.40;;;;;;5054652;28;20577;-90
2022/04/05 01:15:50;;;;;;;1.40;0.60;;;16.70;45.40;;;;;;5053843;28;20238;-90
2022/04/05 01:18:18;;;;;;;0.60;0.60;;;16.70;45.50;;;;;;5054277;28;20175;-90
2022/04/05 01:20:43;;;;;;;0.50;0.50;;;16.70;45.50;;;;;;5054347;28;20253;-90
2022/04/05 01:23:09;;;;;;;0.43;0.43;;;16.70;45.50;;;;;;5051327;28;20512;-90
2022/04/05 01:25:35;;;;;;;0.57;0.57;;;16.70;45.50;;;;;;5052186;28;20201;-90
2022/04/05 01:28:01;;;;;;;0.40;0.40;;;16.70;45.60;;;;;;5052215;28;20222;-91
2022/04/05 01:33:49;;;;;;;0.50;0.50;;;16.70;45.60;;;;;;5053499;28;20192;-90
2022/04/05 01:36:25;;;;;;;0.50;0.50;;;16.60;45.60;;;;;;5053296;28;20208;-91
2022/04/05 01:38:50;;;;;;;0.90;0.60;;;16.60;45.60;;;;;;5052722;28;20209;-90
2022/04/05 01:41:16;;;;;;;0.40;0.40;;;16.60;45.60;;;;;;5053664;28;20211;-91
2022/04/05 01:43:42;;;;;;;0.40;0.40;;;16.60;45.70;;;;;;5052674;28;20548;-90
2022/04/05 01:46:08;;;;;;;0.50;0.50;;;16.60;45.70;;;;;;5051880;28;20262;-90
2022/04/05 01:48:33;;;;;;;0.50;0.50;;;16.60;45.70;;;;;;5052066;28;20564;-91
2022/04/05 01:50:59;;;;;;;0.60;0.60;;;16.60;45.70;;;;;;5051324;28;20202;-90
2022/04/05 01:53:25;;;;;;;0.50;0.50;;;16.60;45.70;;;;;;5052089;28;20231;-91
2022/04/05 01:55:50;;;;;;;1.03;0.70;;;16.60;45.70;;;;;;5017748;28;20217;-90
2022/04/05 01:58:16;;;;;;;0.50;0.50;;;16.60;45.80;;;;;;5051797;28;20267;-91
2022/04/05 02:00:42;;;;;;;0.50;0.50;;;16.60;45.80;;;;;;5051955;28;20565;-91
2022/04/05 02:03:08;;;;;;;0.50;0.50;;;16.50;45.70;;;;;;5051927;28;20176;-91
2022/04/05 02:05:33;;;;;;;0.50;0.50;;;16.50;45.70;;;;;;5053111;28;20238;-91
2022/04/05 02:07:59;;;;;;;0.53;0.53;;;16.60;45.80;;;;;;5051524;28;20568;-90
2022/04/05 02:10:25;;;;;;;0.50;0.50;;;16.60;45.80;;;;;;5050674;28;20583;-90
2022/04/05 02:12:54;;;;;;;0.50;0.50;;;16.50;45.80;;;;;;5052171;28;20176;-91
2022/04/05 02:15:20;;;;;;;0.60;0.53;;;16.50;45.80;;;;;;5053581;28;20200;-91
2022/04/05 02:17:46;;;;;;;0.50;0.50;;;16.50;45.80;;;;;;5053042;28;20216;-91
2022/04/05 02:20:13;;;;;;;0.50;0.50;;;16.50;45.80;;;;;;5053174;28;20170;-91
2022/04/05 02:22:39;;;;;;;0.50;0.50;;;16.50;45.90;;;;;;5053499;28;20203;-92
2022/04/05 02:25:05;;;;;;;0.50;0.50;;;16.50;45.80;;;;;;5053188;28;20182;-92
2022/04/05 02:27:31;;;;;;;0.60;0.60;;;16.50;45.80;;;;;;5053987;28;20223;-91
2022/04/05 02:29:57;;;;;;;0.60;0.60;;;16.50;45.90;;;;;;5053391;28;20391;-91
2022/04/05 02:32:23;;;;;;;0.50;0.50;;;16.50;45.90;;;;;;5051629;28;20172;-91
2022/04/05 02:34:48;;;;;;;0.57;0.57;;;16.50;45.90;;;;;;5051375;28;20435;-91
2022/04/05 02:37:14;;;;;;;0.50;0.50;;;16.50;45.90;;;;;;5051478;28;20174;-91
2022/04/05 02:39:40;;;;;;;0.80;0.80;;;16.50;45.90;;;;;;5053646;28;20172;-92
2022/04/05 02:42:06;;;;;;;0.70;0.70;;;16.40;45.80;;;;;;5051656;28;20174;-91
2022/04/05 02:44:34;;;;;;;0.50;0.50;;;16.40;45.90;;;;;;5053273;28;20534;-91
2022/04/05 02:47:00;;;;;;;0.50;0.50;;;16.40;45.90;;;;;;5053365;28;20168;-91
2022/04/05 02:49:26;;;;;;;0.57;0.50;;;16.40;45.90;;;;;;5054168;28;20233;-91
2022/04/05 02:51:51;;;;;;;0.47;0.47;;;16.40;45.90;;;;;;5053330;28;20281;-91
2022/04/05 02:54:17;;;;;;;0.60;0.60;;;16.40;45.90;;;;;;5052604;28;20280;-91
2022/04/05 02:56:43;;;;;;;0.60;0.60;;;16.40;45.90;;;;;;5052806;28;20220;-91
2022/04/05 02:59:08;;;;;;;0.50;0.50;;;16.30;45.90;;;;;;5050772;28;20208;-90
2022/04/05 03:01:34;;;;;;;0.50;0.50;;;16.30;45.90;;;;;;5053300;28;20177;-91
2022/04/05 03:04:00;;;;;;;0.30;0.30;;;17.20;45.90;;;;;;5053916;28;20180;-91
2022/04/05 03:06:26;;;;;;;0.50;0.50;;;19.70;43.50;;;;;;5056133;28;20182;-91
2022/04/05 03:08:56;;;;;;;0.50;0.50;;;20.10;42.30;;;;;;5055607;28;20189;-91
2022/04/05 03:11:22;;;;;;;0.50;0.50;;;20.20;41.90;;;;;;5056215;28;20386;-91
2022/04/05 03:13:48;;;;;;;0.50;0.40;;;20.40;41.70;;;;;;5056488;28;20180;-91
2022/04/05 03:16:14;;;;;;;0.40;0.40;;;20.70;41.40;;;;;;5054337;28;20489;-91
2022/04/05 03:18:40;;;;;;;0.50;0.50;;;21.00;41.10;;;;;;5055164;28;20180;-91
2022/04/05 03:21:05;;;;;;;0.43;0.43;;;21.30;40.90;;;;;;5055246;28;20176;-91
2022/04/05 03:23:31;;;;;;;0.50;0.50;;;21.70;40.60;;;;;;5055164;28;20184;-91
2022/04/05 03:25:57;;;;;;;0.57;0.57;;;21.90;40.30;;;;;;5056426;28;20185;-91
2022/04/05 03:28:23;;;;;;;0.57;0.57;;;22.00;40.20;;;;;;5056432;28;20180;-90
2022/04/05 03:30:48;;;;;;;0.40;0.40;;;22.00;40.20;;;;;;5055576;28;20205;-91
2022/04/05 03:33:15;;;;;;;0.43;0.43;;;22.10;40.10;;;;;;5055492;28;20197;-91
2022/04/05 03:35:41;;;;;;;0.50;0.50;;;22.40;40.00;;;;;;5055707;28;20232;-90
2022/04/05 03:38:07;;;;;;;0.60;0.60;;;22.60;39.80;;;;;;5054535;28;20191;-90
2022/04/05 03:40:33;;;;;;;0.50;0.50;;;22.70;39.70;;;;;;5055850;28;20179;-91
2022/04/05 03:42:59;;;;;;;0.60;0.60;;;22.80;39.60;;;;;;5054402;28;20561;-90
2022/04/05 03:45:25;;;;;;;0.70;0.70;;;22.80;39.60;;;;;;5054105;28;20211;-90
2022/04/05 03:47:51;;;;;;;0.57;0.57;;;22.70;39.70;;;;;;5055830;28;20191;-91
2022/04/05 03:50:18;;;;;;;0.50;0.50;;;22.70;39.70;;;;;;5055541;28;20180;-91
2022/04/05 03:52:43;;;;;;;0.40;0.40;;;22.60;39.80;;;;;;5055497;28;20198;-90
2022/04/05 03:55:09;;;;;;;0.50;0.50;;;22.40;39.90;;;;;;5054568;28;20211;-91
2022/04/05 03:57:35;;;;;;;0.37;0.37;;;22.30;40.10;;;;;;5054730;28;20196;-91
2022/04/05 04:00:01;;;;;;;0.40;0.40;;;22.10;40.30;;;;;;5052756;28;20183;-90
2022/04/05 04:02:28;;;;;;;0.40;0.40;;;21.90;40.50;;;;;;5054020;28;20180;-90
2022/04/05 04:04:54;;;;;;;0.90;0.60;;;21.60;40.70;;;;;;5053720;28;20171;-90
2022/04/05 04:07:19;;;;;;;0.60;0.50;;;21.50;41.00;;;;;;5052227;28;20176;-90
2022/04/05 04:09:45;;;;;;;0.40;0.40;;;21.30;41.20;;;;;;5055044;28;20278;-90
2022/04/05 04:12:11;;;;;;;0.60;0.60;;;21.20;41.40;;;;;;5054775;28;20188;-91
2022/04/05 04:14:36;;;;;;;0.50;0.50;;;21.00;41.50;;;;;;5054095;28;20201;-91
2022/04/05 04:17:02;;;;;;;0.60;0.60;;;20.90;41.70;;;;;;5054824;28;20463;-90
2022/04/05 04:19:28;;;;;;;0.60;0.60;;;20.70;41.80;;;;;;5054706;28;20215;-90
2022/04/05 04:21:54;;;;;;;0.63;0.63;;;20.60;42.00;;;;;;5054238;28;20173;-90
2022/04/05 04:24:20;;;;;;;0.40;0.40;;;20.50;42.20;;;;;;5052103;28;20272;-90
2022/04/05 04:26:45;;;;;;;0.40;0.40;;;20.30;42.30;;;;;;5052183;28;20323;-90
2022/04/05 04:29:11;;;;;;;0.60;0.60;;;20.10;42.50;;;;;;5052438;28;20180;-91
2022/04/05 04:31:37;;;;;;;0.50;0.50;;;20.00;42.70;;;;;;5053052;28;20249;-91
2022/04/05 04:34:03;;;;;;;0.57;0.57;;;19.90;42.80;;;;;;5055015;28;20216;-90
2022/04/05 04:36:29;;;;;;;0.77;0.40;;;19.70;43.00;;;;;;5053542;28;20497;-91
2022/04/05 04:38:55;;;;;;;0.43;0.43;;;19.60;43.10;;;;;;5054782;28;20166;-91
2022/04/05 04:41:22;;;;;;;0.50;0.50;;;19.40;43.30;;;;;;5053375;28;20428;-91
2022/04/05 04:43:48;;;;;;;0.80;0.60;;;19.30;43.50;;;;;;5053726;28;20249;-90
2022/04/05 04:46:13;;;;;;;0.40;0.40;;;19.20;43.60;;;;;;5051942;28;20444;-91
2022/04/05 04:48:39;;;;;;;0.50;0.50;;;19.00;43.80;;;;;;5051898;28;20275;-90
2022/04/05 04:51:05;;;;;;;0.67;0.67;;;18.90;43.90;;;;;;5052990;28;20176;-91
2022/04/05 04:53:30;;;;;;;0.50;0.50;;;18.90;44.10;;;;;;5051676;28;20198;-91
2022/04/05 04:55:56;;;;;;;0.50;0.50;;;19.10;44.10;;;;;;5052871;28;20252;-91
2022/04/05 04:58:22;;;;;;;1.50;0.60;;;19.40;43.70;;;;;;5053367;28;20184;-90
2022/04/05 05:00:48;;;;;;;1.10;0.50;;;19.70;43.40;;;;;;5052620;28;20164;-91
2022/04/05 05:03:18;;;;;;;0.40;0.40;;;20.00;43.00;;;;;;5051450;28;20517;-91
2022/04/05 05:05:44;;;;;;;0.50;0.50;;;20.50;42.60;;;;;;5051130;28;20174;-91
2022/04/05 05:08:10;;;;;;;0.57;0.57;;;21.10;42.00;;;;;;5051592;28;20440;-91
2022/04/05 05:10:36;;;;;;;0.73;0.53;;;21.70;41.50;;;;;;5051551;28;20170;-91
2022/04/05 05:13:02;;;;;;;0.60;0.60;;;22.10;40.90;;;;;;5050905;28;20369;-90
2022/04/05 05:15:28;;;;;;;0.60;0.60;;;22.60;40.80;;;;;;5050426;28;20204;-91
2022/04/05 05:17:55;;;;;;;0.50;0.50;;;22.90;40.00;;;;;;5050109;28;20181;-91
2022/04/05 05:20:22;;;;;;;0.40;0.40;;;23.20;39.70;;;;;;5051343;28;20175;-91
2022/04/05 05:22:48;;;;;;;0.70;0.70;;;23.30;39.60;;;;;;5050648;28;20179;-91
2022/04/05 05:25:14;;;;;;;1.30;0.60;;;23.30;39.50;;;;;;5049498;28;20172;-90
2022/04/05 05:27:40;;;;;;;0.60;0.60;;;23.10;39.70;;;;;;5049213;28;20186;-90
2022/04/05 05:30:07;;;;;;;0.60;0.57;;;23.00;39.90;;;;;;5048865;28;20207;-91
2022/04/05 05:32:53;;;;;;;0.50;0.50;;;22.80;40.50;;;;;;5049273;28;20278;-90
2022/04/05 05:35:23;;;;;;;0.70;0.70;;;22.50;40.30;;;;;;5047204;28;20487;-90
2022/04/05 05:37:49;;;;;;;3.27;0.60;;;22.20;40.60;;;;;;5047705;28;20167;-91
2022/04/05 05:40:20;;;;;;;1.23;0.80;;;22.10;41.00;;;;;;5050994;28;20181;-91
2022/04/05 05:42:50;;;;;;;0.60;0.60;;;21.90;41.20;;;;;;5048165;28;20182;-92
2022/04/05 05:45:15;;;;;;;0.80;0.70;;;21.60;41.60;;;;;;5047787;28;20576;-91
2022/04/05 05:47:41;;;;;;;0.67;0.60;;;21.40;41.90;;;;;;5047362;28;20180;-92
2022/04/05 05:50:10;;;;;;;0.60;0.60;;;21.20;42.10;;;;;;5047301;28;20182;-91
2022/04/05 05:52:36;;;;;;;1.33;0.80;;;21.00;42.40;;;;;;5047374;28;20584;-92
2022/04/05 05:55:03;;;;;;;1.53;0.70;;;20.80;42.60;;;;;;5048586;28;20218;-92
2022/04/05 05:57:29;;;;;;;1.73;0.80;;;20.60;42.80;;;;;;5046940;28;20210;-91
2022/04/05 05:59:55;;;;;;;0.97;0.80;;;20.40;43.10;;;;;;5047508;28;20209;-91
2022/04/05 06:05:43;;;;;;;0.80;0.70;;;19.90;43.70;;;;;;5045569;28;20328;-91
2022/04/05 06:08:10;;;;;;;0.90;0.80;;;19.80;44.00;;;;;;5046176;28;20172;-90
2022/04/05 06:10:36;;;;;;;1.60;0.80;;;19.60;44.20;;;;;;5045931;28;20471;-90
2022/04/05 06:13:02;;;;;;;2.07;0.80;;;19.40;44.50;;;;;;5046530;28;20275;-90
2022/04/05 06:15:29;;;;;;;1.10;0.90;;;19.30;44.70;;;;;;5047529;28;20216;-90
2022/04/05 06:17:57;;;;;;;0.93;0.83;;;19.30;44.70;;;;;;5046789;28;20272;-90
2022/04/05 06:20:24;;;;;;;0.80;0.80;;;19.40;44.70;;;;;;5047707;28;20563;-90
2022/04/05 06:22:58;;;;;;;1.67;0.70;;;19.50;44.60;;;;;;5045864;28;20172;-90
2022/04/05 06:25:29;;;;;;;1.63;0.73;;;19.70;44.50;;;;;;5045902;28;20210;-90
2022/04/05 06:27:57;;;;;;;1.87;0.80;;;20.10;44.20;;;;;;5046643;28;20264;-90
2022/04/05 06:30:25;;;;;;;1.00;0.90;;;20.50;43.80;;;;;;5047154;28;20178;-90
2022/04/05 06:32:51;;;;;;;0.90;0.90;;;20.80;43.50;;;;;;5047491;28;20193;-90
2022/04/05 06:35:16;;;;;;;1.63;1.00;;;21.10;43.20;;;;;;5047221;28;20203;-90
2022/04/05 06:37:45;;;;;;;2.30;1.00;;;21.40;43.00;;;;;;5047315;28;20753;-90
2022/04/05 06:40:15;;;;;;;2.30;1.00;;;21.60;42.80;;;;;;5051088;28;20687;-90
2022/04/05 06:42:46;;;;;;;1.43;0.93;;;21.80;42.60;;;;;;5052023;28;20257;-91
2022/04/05 06:45:17;;;;;;;1.17;1.07;;;21.90;42.40;;;;;;5050156;28;20545;-92
2022/04/05 06:47:43;;;;;;;1.77;1.10;;;21.90;42.30;;;;;;5050973;28;20170;-91
2022/04/05 06:50:10;;;;;;;2.20;0.90;;;21.90;42.40;;;;;;5049658;28;20179;-91
2022/04/05 06:52:38;;;;;;;1.23;1.00;;;21.90;42.40;;;;;;5051475;28;20195;-91
2022/04/05 06:55:05;;;;;;;1.83;1.30;;;21.80;42.40;;;;;;5049219;28;20214;-91
2022/04/05 06:57:31;;;;;;;2.80;1.20;;;21.80;42.50;;;;;;5049772;28;20174;-92
2022/04/05 06:59:57;;;;;;;1.10;1.00;;;21.60;42.70;;;;;;5049922;28;20444;-92
2022/04/05 07:02:23;;;;;;;1.53;1.20;;;21.40;42.90;;;;;;5052518;28;20164;-92
2022/04/05 07:04:48;;;;;;;3.10;1.30;;;21.20;43.00;;;;;;5050896;28;20175;-91
2022/04/05 07:07:14;;;;;;;2.70;1.20;;;21.10;43.20;;;;;;5049386;28;20253;-91
2022/04/05 07:09:40;;;;;;;2.20;1.03;;;20.90;43.40;;;;;;5050000;28;20208;-92
2022/04/05 07:12:09;;;;;;;2.27;1.10;;;20.70;43.50;;;;;;5046904;28;20201;-93
2022/04/05 07:14:35;;;;;;;2.13;1.10;;;20.50;43.70;;;;;;5049391;28;20173;-92
2022/04/05 07:17:00;;;;;;;4.00;1.23;;;20.20;44.00;;;;;;5050485;28;20235;-92
2022/04/05 07:19:26;;;;;;;1.70;1.13;;;20.10;44.20;;;;;;5050268;28;20234;-92
2022/04/05 07:21:52;;;;;;;1.90;1.30;;;19.90;44.40;;;;;;5051518;28;20444;-91
2022/04/05 07:24:18;;;;;;;1.20;1.10;;;19.70;44.70;;;;;;5050760;28;20181;-92
2022/04/05 07:26:45;;;;;;;1.53;1.20;;;19.50;44.80;;;;;;5050510;28;20457;-92
2022/04/05 07:29:11;;;;;;;1.20;1.10;;;19.40;45.00;;;;;;5049235;28;20168;-92
2022/04/05 07:31:37;;;;;;;2.20;1.30;;;19.20;45.20;;;;;;5049042;28;20167;-91
2022/04/05 07:34:03;;;;;;;1.70;1.40;;;19.00;45.40;;;;;;5049333;28;20286;-92
2022/04/05 07:36:31;;;;;;;1.57;1.23;;;18.90;45.50;;;;;;5050517;28;20471;-92
2022/04/05 07:38:57;;;;;;;2.43;1.37;;;18.90;45.70;;;;;;5050473;28;20448;-92
2022/04/05 07:41:23;;;;;;;1.23;0.97;;;18.90;45.70;;;;;;5049489;28;20169;-92
2022/04/05 07:43:48;;;;;;;2.47;1.50;;;19.10;45.60;;;;;;5050872;28;20606;-92
2022/04/05 07:46:14;;;;;;;2.83;1.57;;;19.40;45.30;;;;;;5051292;28;20440;-92
2022/04/05 07:48:40;;;;;;;2.10;1.27;;;19.60;45.00;;;;;;5049566;28;20258;-92
2022/04/05 07:51:06;;;;;;;3.23;1.40;;;20.00;44.60;;;;;;5050252;28;20447;-91
2022/04/05 07:53:32;;;;;;;1.53;1.30;;;20.30;44.30;;;;;;5049858;28;20205;-91
2022/04/05 07:55:58;;;;;;;1.67;1.30;;;20.40;44.10;;;;;;5049228;28;20306;-92
2022/04/05 07:58:24;;;;;;;2.03;1.30;;;20.50;44.00;;;;;;5048188;28;20165;-91
2022/04/05 08:00:51;;;;;;;1.53;1.30;;;20.60;43.90;;;;;;5050229;28;20178;-91
2022/04/05 08:03:20;;;;;;;1.33;1.23;;;20.60;43.80;;;;;;5050507;28;20263;-91
2022/04/05 08:05:45;;;;;;;1.63;1.30;;;20.50;43.80;;;;;;5049966;28;20173;-91
2022/04/05 08:08:11;;;;;;;1.67;1.43;;;20.60;43.80;;;;;;5048365;28;20212;-92
2022/04/05 08:10:37;;;;;;;1.20;1.10;;;20.60;43.80;;;;;;5049824;28;20174;-91
2022/04/05 08:13:02;;;;;;;1.60;1.40;;;20.60;43.80;;;;;;5049014;28;20164;-91
2022/04/05 08:15:29;;;;;;;3.20;1.00;;;20.60;43.80;;;;;;5053039;28;20204;-91
2022/04/05 08:17:55;;;;;;;1.90;1.20;;;20.60;43.80;;;;;;5048633;28;20598;-92
2022/04/05 08:20:21;;;;;;;1.40;1.30;;;20.50;43.90;;;;;;5049169;28;20428;-91
2022/04/05 08:22:47;;;;;;;2.93;1.33;;;20.50;43.90;;;;;;5049592;28;20229;-91
2022/04/05 08:25:15;;;;;;;2.00;1.30;;;20.40;44.00;;;;;;5049258;28;20173;-91
2022/04/05 08:27:47;;;;;;;1.10;1.00;;;20.40;44.10;;;;;;5049609;28;20180;-91
2022/04/05 08:30:15;;;;;;;1.30;1.20;;;20.30;44.20;;;;;;5048607;28;20179;-92
2022/04/05 08:32:43;;;;;;;1.40;1.30;;;20.20;44.30;;;;;;5048116;28;20510;-91
2022/04/05 08:35:11;;;;;;;2.00;1.00;;;20.10;44.40;;;;;;5048908;28;20209;-91
2022/04/05 08:37:39;;;;;;;2.47;1.30;;;20.10;44.50;;;;;;5048535;28;20173;-91
2022/04/05 08:40:07;;;;;;;1.83;1.27;;;20.00;44.60;;;;;;5047956;28;20168;-91
2022/04/05 08:42:38;;;;;;;1.53;1.23;;;20.00;44.60;;;;;;5048621;28;20520;-91
2022/04/05 08:45:10;;;;;;;2.27;1.43;;;20.00;44.70;;;;;;5049006;28;20647;-92
2022/04/05 08:47:38;;;;;;;1.40;1.30;;;19.90;44.80;;;;;;5049783;28;20166;-91
2022/04/05 08:50:05;;;;;;;1.30;1.20;;;19.90;44.90;;;;;;5047972;28;20204;-92
2022/04/05 08:52:31;;;;;;;1.70;1.30;;;19.90;44.90;;;;;;5048253;28;20180;-92
2022/04/05 08:54:57;;;;;;;1.50;1.40;;;19.90;44.90;;;;;;5049181;28;20491;-92
2022/04/05 08:57:23;;;;;;;2.13;1.63;;;19.90;44.80;;;;;;5049090;28;20230;-91
2022/04/05 08:59:49;;;;;;;2.17;1.27;;;19.90;44.90;;;;;;5048444;28;20248;-90
2022/04/05 09:02:24;;;;;;;1.97;1.50;;;19.80;44.90;;;;;;5047436;28;20405;-91
2022/04/05 09:04:50;;;;;;;1.73;1.20;;;19.90;44.90;;;;;;5048323;28;20173;-90
2022/04/05 09:07:47;;;;;;;2.00;1.43;;;19.90;44.80;;;;;;5047819;28;20209;-90
2022/04/05 09:10:15;;;;;;;1.57;1.30;;;19.90;44.80;;;;;;5032046;28;20285;-90
2022/04/05 09:12:47;;;;;;;1.77;1.20;;;19.90;44.90;;;;;;5047792;28;20174;-90
2022/04/05 09:15:19;;;;;;;1.40;1.30;;;19.90;44.90;;;;;;5048346;28;20204;-90
2022/04/05 09:17:46;;;;;;;1.43;1.33;;;20.10;44.70;;;;;;5046324;28;20194;-90
2022/04/05 09:20:13;;;;;;;1.90;1.20;;;20.30;44.50;;;;;;5048093;28;20169;-90
2022/04/05 09:22:40;;;;;;;3.10;1.30;;;20.40;44.40;;;;;;5047550;28;20552;-91
2022/04/05 09:25:14;;;;;;;3.43;1.37;;;20.30;44.40;;;;;;5048412;28;20170;-89
2022/04/05 09:27:46;;;;;;;2.60;1.50;;;20.30;44.40;;;;;;5048477;28;20477;-90
2022/04/05 09:30:23;;;;;;;3.33;1.30;;;20.50;44.30;;;;;;5047727;28;20253;-92
2022/04/05 09:32:51;;;;;;;2.43;1.33;;;20.50;44.30;;;;;;5047962;28;20183;-93
2022/04/05 09:35:21;;;;;;;2.07;1.47;;;20.70;44.20;;;;;;5049036;28;20227;-92
2022/04/05 09:37:47;;;;;;;2.33;1.20;;;20.70;44.10;;;;;;5048810;28;20180;-92
2022/04/05 09:40:35;;;;;;;1.57;1.23;;;20.70;44.20;;;;;;5048897;28;20185;-92
2022/04/05 09:43:12;;;;;;;3.70;1.57;;;20.60;44.20;;;;;;5048096;28;20175;-92
2022/04/05 09:45:52;;;;;;;1.90;1.40;;;20.60;44.20;;;;;;5047905;28;20241;-92
2022/04/05 09:48:23;;;;;;;2.57;1.27;;;20.70;44.20;;;;;;5048168;28;20176;-92
2022/04/05 09:51:16;;;;;;;1.40;1.30;;;20.70;44.20;;;;;;5048038;28;20188;-92
2022/04/05 09:53:57;;;;;;;2.90;1.30;;;20.70;44.30;;;;;;5049534;28;20324;-92
2022/04/05 09:56:31;;;;;;;2.03;1.50;;;20.60;44.40;;;;;;5047112;28;20224;-92
2022/04/05 09:59:04;;;;;;;1.40;1.20;;;20.50;44.50;;;;;;5047488;28;20174;-92
2022/04/05 10:01:33;;;;;;;1.47;1.33;;;20.40;44.60;;;;;;5045915;28;20474;-91
2022/04/05 10:04:12;;;;;;;1.57;1.47;;;20.30;44.70;;;;;;5047364;28;20180;-92
2022/04/05 10:06:43;;;;;;;1.57;1.47;;;20.30;44.90;;;;;;5047565;28;20458;-92
2022/04/05 10:09:09;;;;;;;1.33;1.23;;;20.20;44.90;;;;;;5046772;28;20183;-93
2022/04/05 10:11:37;;;;;;;1.67;1.30;;;20.20;45.00;;;;;;5047098;28;20190;-93
2022/04/05 10:14:04;;;;;;;1.77;1.30;;;20.20;45.00;;;;;;5047391;28;20337;-92
2022/04/05 10:16:31;;;;;;;1.40;1.30;;;20.00;45.10;;;;;;5045397;28;20211;-91
2022/04/05 10:18:59;;;;;;;2.63;1.40;;;20.10;45.20;;;;;;5046452;28;20169;-91
2022/04/05 10:21:28;;;;;;;1.73;1.30;;;20.00;45.20;;;;;;5046849;28;20209;-92
2022/04/05 10:23:56;;;;;;;2.07;1.43;;;20.00;45.30;;;;;;5044381;28;20426;-91
2022/04/05 10:26:28;;;;;;;1.90;1.37;;;20.00;45.40;;;;;;5046413;28;20179;-91
2022/04/05 10:28:57;;;;;;;3.57;1.50;;;19.90;45.50;;;;;;5046898;28;20177;-92
2022/04/05 10:31:42;;;;;;;1.50;1.30;;;19.90;45.60;;;;;;5046579;28;20190;-91
2022/04/05 10:34:22;;;;;;;1.87;1.30;;;19.90;45.60;;;;;;5045520;28;20191;-91
2022/04/05 10:37:06;;;;;;;1.50;1.40;;;19.80;45.60;;;;;;5046740;28;20250;-90
2022/04/05 10:39:33;;;;;;;1.93;1.47;;;19.80;45.70;;;;;;5046621;28;20178;-92
2022/04/05 10:42:24;;;;;;;1.50;1.33;;;19.80;45.80;;;;;;5046598;28;20617;-91
2022/04/05 10:45:19;;;;;;;1.77;1.40;;;19.70;45.90;;;;;;5044447;28;20174;-92
2022/04/05 10:48:13;;;;;;;3.07;1.70;;;19.60;45.90;;;;;;5046647;28;20188;-91
2022/04/05 10:50:41;;;;;;;2.40;1.50;;;19.50;46.10;;;;;;5045332;28;20172;-91
2022/04/05 10:53:12;;;;;;;2.70;1.30;;;19.40;46.30;;;;;;5045434;28;20249;-91
2022/04/05 10:56:04;;;;;;;1.80;1.50;;;19.30;46.50;;;;;;5045122;28;20348;-91
2022/04/05 10:58:48;;;;;;;3.57;1.40;;;19.20;46.60;;;;;;5035057;28;20409;-91
2022/04/05 11:01:23;;;;;;;3.93;1.50;;;19.10;46.80;;;;;;5044326;28;20381;-91
2022/04/05 11:04:16;;;;;;;2.27;1.50;;;19.00;46.80;;;;;;5046019;28;20168;-91
2022/04/05 11:07:02;;;;;;;5.27;1.40;;;18.90;47.00;;;;;;5045384;28;20175;-91
2022/04/05 11:09:40;;;;;;;1.23;1.10;;;18.90;47.10;;;;;;5032995;28;20234;-91
2022/04/05 11:12:12;;;;;;;3.20;1.40;;;19.10;47.10;;;;;;5043726;28;20508;-92
2022/04/05 11:14:47;;;;;;;3.07;1.50;;;19.50;46.70;;;;;;5044173;28;20280;-92
2022/04/05 11:17:15;;;;;;;1.73;1.60;;;20.00;46.10;;;;;;5043469;28;20462;-92
2022/04/05 11:19:45;;;;;;;4.00;1.40;;;20.20;45.60;;;;;;5053592;28;20179;-92
2022/04/05 11:22:19;;;;;;;2.00;1.80;;;20.50;45.40;;;;;;5067419;28;20169;-93
2022/04/05 11:25:04;;;;;;;1.80;1.40;;;21.10;44.80;;;;;;5066822;28;20203;-92
2022/04/05 11:27:45;;;;;;;1.60;1.50;;;21.30;44.40;;;;;;5068595;28;20173;-92
2022/04/05 11:30:26;;;;;;;2.13;1.50;;;21.30;44.40;;;;;;5068852;28;20171;-92
2022/04/05 11:33:16;;;;;;;2.27;1.30;;;21.60;44.40;;;;;;5067503;28;20190;-92
2022/04/05 11:36:00;;;;;;;2.87;1.40;;;21.80;44.20;;;;;;5071208;28;20198;-92
2022/04/05 11:38:35;;;;;;;2.03;1.60;;;22.00;43.90;;;;;;5067850;28;20501;-92
2022/04/05 11:41:08;;;;;;;2.17;1.30;;;22.10;43.80;;;;;;5066732;28;20269;-92
2022/04/05 11:43:43;;;;;;;1.77;1.40;;;22.10;43.70;;;;;;5069077;28;20175;-91
2022/04/05 11:46:25;;;;;;;1.57;1.20;;;22.10;43.80;;;;;;5069268;28;20167;-91
2022/04/05 11:48:53;;;;;;;2.57;1.53;;;22.00;43.90;;;;;;5067896;28;20488;-91
2022/04/05 11:51:28;;;;;;;2.43;1.30;;;21.90;44.00;;;;;;5066737;28;20578;-91
2022/04/05 11:54:19;;;;;;;2.03;1.20;;;21.70;44.20;;;;;;5067722;28;20294;-91
2022/04/05 11:56:45;;;;;;;1.47;1.20;;;21.50;44.50;;;;;;5068152;28;20213;-92
2022/04/05 11:59:13;;;;;;;2.47;1.33;;;21.30;44.70;;;;;;5066694;28;20263;-92
2022/04/05 12:01:42;;;;;;;1.37;1.27;;;21.10;44.90;;;;;;5067420;28;20188;-91
2022/04/05 12:04:20;;;;;;;2.33;1.30;;;20.90;45.10;;;;;;5067735;28;20616;-91
2022/04/05 12:06:48;;;;;;;1.90;1.40;;;20.70;45.40;;;;;;5068651;28;20171;-90
2022/04/05 12:09:17;;;;;;;2.33;1.10;;;20.50;45.70;;;;;;5067297;28;20524;-91
2022/04/05 12:11:48;;;;;;;1.40;1.20;;;20.30;45.90;;;;;;5068266;28;20178;-91
2022/04/05 12:14:20;;;;;;;1.40;1.30;;;20.10;46.20;;;;;;5068659;28;20622;-91
2022/04/05 12:16:53;;;;;;;2.67;1.20;;;20.00;46.50;;;;;;5068143;28;20199;-93
2022/04/05 12:19:29;;;;;;;1.27;1.17;;;19.80;46.60;;;;;;5069228;28;20167;-92
2022/04/05 12:22:06;;;;;;;1.30;1.20;;;19.70;46.80;;;;;;5067383;28;20167;-92
2022/04/05 12:24:34;;;;;;;2.13;1.27;;;19.60;47.00;;;;;;5068274;28;20165;-92
2022/04/05 12:27:02;;;;;;;1.30;1.20;;;19.50;47.10;;;;;;5068390;28;20273;-92
2022/04/05 12:29:30;;;;;;;2.33;1.20;;;19.40;47.20;;;;;;5072568;28;20167;-92
2022/04/05 12:32:04;;;;;;;1.40;1.30;;;19.30;47.30;;;;;;5067905;28;20369;-92
2022/04/05 12:34:30;;;;;;;1.40;1.30;;;19.20;47.40;;;;;;5068180;28;20486;-93
2022/04/05 12:37:02;;;;;;;1.70;1.17;;;19.20;47.70;;;;;;5066252;28;20181;-93
2022/04/05 12:39:41;;;;;;;1.50;1.20;;;19.20;47.60;;;;;;5069320;28;20274;-92
2022/04/05 12:42:08;;;;;;;1.50;1.20;;;19.10;47.70;;;;;;5075546;28;20176;-91
2022/04/05 12:44:39;;;;;;;1.30;1.10;;;19.20;47.80;;;;;;5070844;28;20204;-92
2022/04/05 12:47:14;;;;;;;1.83;1.20;;;19.30;47.70;;;;;;5072400;28;20177;-92
2022/04/05 12:49:46;;;;;;;1.30;1.20;;;19.70;47.40;;;;;;5067422;28;20179;-92
2022/04/05 12:52:12;;;;;;;1.50;1.33;;;20.00;47.00;;;;;;5070696;28;20579;-92
2022/04/05 12:54:49;;;;;;;1.60;1.50;;;20.40;46.70;;;;;;5068464;28;20209;-92
2022/04/05 12:57:32;;;;;;;1.40;1.30;;;20.50;46.30;;;;;;5068346;28;20181;-93
2022/04/05 13:00:21;;;;;;;1.20;1.10;;;20.60;46.20;;;;;;5068141;28;20202;-92
2022/04/05 13:02:56;;;;;;;1.30;1.20;;;20.60;46.10;;;;;;5066621;28;20626;-91
2022/04/05 13:08:17;;;;;;;3.63;1.60;;;20.70;46.10;;;;;;5067534;28;20303;-92